sensor_id;sensor_type;location;lat;lon;timestamp;temperature;humidity
45435;DHT22;31183;47.404;8.500;2023-07-08T00:01:11;23.30;67.80
45435;DHT22;31183;47.404;8.500;2023-07-08T00:03:39;23.30;67.40
45435;DHT22;31183;47.404;8.500;2023-07-08T00:06:19;23.40;66.80
45435;DHT22;31183;47.404;8.500;2023-07-08T00:08:46;23.40;66.00
45435;DHT22;31183;47.404;8.500;2023-07-08T00:11:14;23.40;65.80
45435;DHT22;31183;47.404;8.500;2023-07-08T00:13:41;23.40;65.70
45435;DHT22;31183;47.404;8.500;2023-07-08T00:16:12;23.40;65.00
45435;DHT22;31183;47.404;8.500;2023-07-08T00:18:40;23.50;65.70
45435;DHT22;31183;47.404;8.500;2023-07-08T00:21:11;23.50;66.00
45435;DHT22;31183;47.404;8.500;2023-07-08T00:23:44;23.50;66.40
45435;DHT22;31183;47.404;8.500;2023-07-08T00:26:30;23.40;67.50
45435;DHT22;31183;47.404;8.500;2023-07-08T00:28:57;23.30;68.90
45435;DHT22;31183;47.404;8.500;2023-07-08T00:31:24;23.30;68.80
45435;DHT22;31183;47.404;8.500;2023-07-08T00:33:53;23.30;67.70
45435;DHT22;31183;47.404;8.500;2023-07-08T00:36:26;23.20;68.60
45435;DHT22;31183;47.404;8.500;2023-07-08T00:38:53;23.20;69.00
45435;DHT22;31183;47.404;8.500;2023-07-08T00:41:27;23.20;68.20
45435;DHT22;31183;47.404;8.500;2023-07-08T00:43:57;23.20;69.40
45435;DHT22;31183;47.404;8.500;2023-07-08T00:51:35;23.20;72.30
45435;DHT22;31183;47.404;8.500;2023-07-08T00:54:10;23.20;71.70
45435;DHT22;31183;47.404;8.500;2023-07-08T00:56:47;23.20;71.60
45435;DHT22;31183;47.404;8.500;2023-07-08T00:59:35;23.20;71.60
45435;DHT22;31183;47.404;8.500;2023-07-08T01:02:07;23.20;70.90
45435;DHT22;31183;47.404;8.500;2023-07-08T01:04:38;23.20;70.70
45435;DHT22;31183;47.404;8.500;2023-07-08T01:07:09;23.20;70.50
45435;DHT22;31183;47.404;8.500;2023-07-08T01:09:44;23.20;70.90
45435;DHT22;31183;47.404;8.500;2023-07-08T01:12:17;23.20;71.00
45435;DHT22;31183;47.404;8.500;2023-07-08T01:14:46;23.20;70.70
45435;DHT22;31183;47.404;8.500;2023-07-08T01:17:14;23.20;70.30
45435;DHT22;31183;47.404;8.500;2023-07-08T01:19:43;23.10;70.10
45435;DHT22;31183;47.404;8.500;2023-07-08T01:22:11;23.10;70.60
45435;DHT22;31183;47.404;8.500;2023-07-08T01:24:39;23.10;71.50
45435;DHT22;31183;47.404;8.500;2023-07-08T01:27:10;23.10;72.20
45435;DHT22;31183;47.404;8.500;2023-07-08T01:29:38;23.10;73.00
45435;DHT22;31183;47.404;8.500;2023-07-08T01:32:05;23.10;73.20
45435;DHT22;31183;47.404;8.500;2023-07-08T01:34:33;23.00;72.20
45435;DHT22;31183;47.404;8.500;2023-07-08T01:37:02;23.00;71.50
45435;DHT22;31183;47.404;8.500;2023-07-08T01:39:31;23.00;71.50
45435;DHT22;31183;47.404;8.500;2023-07-08T01:41:59;22.90;71.80
45435;DHT22;31183;47.404;8.500;2023-07-08T01:44:33;22.90;72.30
45435;DHT22;31183;47.404;8.500;2023-07-08T01:47:13;22.90;73.40
45435;DHT22;31183;47.404;8.500;2023-07-08T01:49:42;22.90;73.60
45435;DHT22;31183;47.404;8.500;2023-07-08T01:52:10;22.90;73.50
45435;DHT22;31183;47.404;8.500;2023-07-08T01:54:37;22.80;73.40
45435;DHT22;31183;47.404;8.500;2023-07-08T01:57:04;22.80;73.60
45435;DHT22;31183;47.404;8.500;2023-07-08T01:59:31;22.80;73.90
45435;DHT22;31183;47.404;8.500;2023-07-08T02:01:57;22.80;74.20
45435;DHT22;31183;47.404;8.500;2023-07-08T02:04:25;22.80;74.70
45435;DHT22;31183;47.404;8.500;2023-07-08T02:06:57;22.80;75.10
45435;DHT22;31183;47.404;8.500;2023-07-08T02:09:25;22.70;76.20
45435;DHT22;31183;47.404;8.500;2023-07-08T02:11:52;22.70;76.20
45435;DHT22;31183;47.404;8.500;2023-07-08T02:14:19;22.70;75.50
45435;DHT22;31183;47.404;8.500;2023-07-08T02:16:46;22.60;74.80
45435;DHT22;31183;47.404;8.500;2023-07-08T02:19:13;22.60;74.40
45435;DHT22;31183;47.404;8.500;2023-07-08T02:21:39;22.60;73.20
45435;DHT22;31183;47.404;8.500;2023-07-08T02:24:07;22.50;73.10
45435;DHT22;31183;47.404;8.500;2023-07-08T02:26:33;22.50;73.10
45435;DHT22;31183;47.404;8.500;2023-07-08T02:29:01;22.40;73.20
45435;DHT22;31183;47.404;8.500;2023-07-08T02:31:28;22.50;73.70
45435;DHT22;31183;47.404;8.500;2023-07-08T02:33:54;22.50;74.10
45435;DHT22;31183;47.404;8.500;2023-07-08T02:36:21;22.50;74.80
45435;DHT22;31183;47.404;8.500;2023-07-08T02:38:48;22.60;75.10
45435;DHT22;31183;47.404;8.500;2023-07-08T02:41:14;22.60;75.30
45435;DHT22;31183;47.404;8.500;2023-07-08T02:43:41;22.60;75.70
45435;DHT22;31183;47.404;8.500;2023-07-08T02:46:08;22.50;76.20
45435;DHT22;31183;47.404;8.500;2023-07-08T02:48:35;22.50;76.90
45435;DHT22;31183;47.404;8.500;2023-07-08T02:51:03;22.50;76.90
45435;DHT22;31183;47.404;8.500;2023-07-08T02:53:30;22.50;77.90
45435;DHT22;31183;47.404;8.500;2023-07-08T02:55:57;22.60;77.30
45435;DHT22;31183;47.404;8.500;2023-07-08T02:58:24;22.50;77.80
45435;DHT22;31183;47.404;8.500;2023-07-08T03:00:55;22.50;77.90
45435;DHT22;31183;47.404;8.500;2023-07-08T03:03:22;22.60;77.80
45435;DHT22;31183;47.404;8.500;2023-07-08T03:06:03;22.60;77.80
45435;DHT22;31183;47.404;8.500;2023-07-08T03:08:32;22.60;79.80
45435;DHT22;31183;47.404;8.500;2023-07-08T03:11:03;22.50;81.80
45435;DHT22;31183;47.404;8.500;2023-07-08T03:13:31;22.30;81.90
45435;DHT22;31183;47.404;8.500;2023-07-08T03:15:59;22.40;81.90
45435;DHT22;31183;47.404;8.500;2023-07-08T03:18:27;22.50;81.80
45435;DHT22;31183;47.404;8.500;2023-07-08T03:20:56;22.60;81.30
45435;DHT22;31183;47.404;8.500;2023-07-08T03:23:24;22.60;80.90
45435;DHT22;31183;47.404;8.500;2023-07-08T03:25:51;22.60;80.50
45435;DHT22;31183;47.404;8.500;2023-07-08T03:28:18;22.70;80.40
45435;DHT22;31183;47.404;8.500;2023-07-08T03:30:50;22.60;79.90
45435;DHT22;31183;47.404;8.500;2023-07-08T03:33:17;22.60;80.40
45435;DHT22;31183;47.404;8.500;2023-07-08T03:35:45;22.30;82.40
45435;DHT22;31183;47.404;8.500;2023-07-08T03:38:11;22.10;82.90
45435;DHT22;31183;47.404;8.500;2023-07-08T03:40:38;22.20;83.70
45435;DHT22;31183;47.404;8.500;2023-07-08T03:43:05;22.30;83.50
45435;DHT22;31183;47.404;8.500;2023-07-08T03:45:31;22.10;83.40
45435;DHT22;31183;47.404;8.500;2023-07-08T03:47:58;22.00;83.90
45435;DHT22;31183;47.404;8.500;2023-07-08T03:50:26;21.90;84.20
45435;DHT22;31183;47.404;8.500;2023-07-08T03:52:54;21.70;85.10
45435;DHT22;31183;47.404;8.500;2023-07-08T03:55:21;21.60;86.60
45435;DHT22;31183;47.404;8.500;2023-07-08T03:57:48;21.50;87.50
45435;DHT22;31183;47.404;8.500;2023-07-08T04:00:15;21.50;88.10
45435;DHT22;31183;47.404;8.500;2023-07-08T04:02:43;21.50;87.80
45435;DHT22;31183;47.404;8.500;2023-07-08T04:05:14;21.70;88.00
45435;DHT22;31183;47.404;8.500;2023-07-08T04:07:41;21.80;87.70
45435;DHT22;31183;47.404;8.500;2023-07-08T04:10:09;21.90;87.70
45435;DHT22;31183;47.404;8.500;2023-07-08T04:12:37;22.00;87.60
45435;DHT22;31183;47.404;8.500;2023-07-08T04:15:04;22.00;87.10
45435;DHT22;31183;47.404;8.500;2023-07-08T04:17:31;21.90;87.00
45435;DHT22;31183;47.404;8.500;2023-07-08T04:19:58;21.90;86.80
45435;DHT22;31183;47.404;8.500;2023-07-08T04:22:24;21.80;87.70
45435;DHT22;31183;47.404;8.500;2023-07-08T04:24:51;21.70;88.00
45435;DHT22;31183;47.404;8.500;2023-07-08T04:27:17;21.70;87.90
45435;DHT22;31183;47.404;8.500;2023-07-08T04:29:44;21.80;87.20
45435;DHT22;31183;47.404;8.500;2023-07-08T04:32:11;21.80;87.40
45435;DHT22;31183;47.404;8.500;2023-07-08T04:34:38;21.60;87.60
45435;DHT22;31183;47.404;8.500;2023-07-08T04:37:05;21.40;89.30
45435;DHT22;31183;47.404;8.500;2023-07-08T04:39:32;21.20;90.20
45435;DHT22;31183;47.404;8.500;2023-07-08T04:41:58;21.00;91.10
45435;DHT22;31183;47.404;8.500;2023-07-08T04:44:26;20.80;91.40
45435;DHT22;31183;47.404;8.500;2023-07-08T04:46:56;20.90;91.40
45435;DHT22;31183;47.404;8.500;2023-07-08T04:49:23;21.10;91.40
45435;DHT22;31183;47.404;8.500;2023-07-08T04:51:51;21.30;91.40
45435;DHT22;31183;47.404;8.500;2023-07-08T04:54:18;21.10;92.80
45435;DHT22;31183;47.404;8.500;2023-07-08T04:56:48;21.00;93.00
45435;DHT22;31183;47.404;8.500;2023-07-08T04:59:17;21.00;93.40
45435;DHT22;31183;47.404;8.500;2023-07-08T05:01:44;21.00;94.40
45435;DHT22;31183;47.404;8.500;2023-07-08T05:04:17;20.90;94.90
45435;DHT22;31183;47.404;8.500;2023-07-08T05:06:43;20.90;95.40
45435;DHT22;31183;47.404;8.500;2023-07-08T05:09:11;21.00;95.40
45435;DHT22;31183;47.404;8.500;2023-07-08T05:11:40;21.20;95.10
45435;DHT22;31183;47.404;8.500;2023-07-08T05:14:07;21.20;95.00
45435;DHT22;31183;47.404;8.500;2023-07-08T05:16:35;21.30;94.90
45435;DHT22;31183;47.404;8.500;2023-07-08T05:19:04;21.40;95.00
45435;DHT22;31183;47.404;8.500;2023-07-08T05:21:31;21.30;95.20
45435;DHT22;31183;47.404;8.500;2023-07-08T05:24:04;21.00;95.70
45435;DHT22;31183;47.404;8.500;2023-07-08T05:26:32;20.70;97.20
45435;DHT22;31183;47.404;8.500;2023-07-08T05:28:59;20.60;98.30
45435;DHT22;31183;47.404;8.500;2023-07-08T05:31:27;20.50;98.90
45435;DHT22;31183;47.404;8.500;2023-07-08T05:34:14;20.60;98.80
45435;DHT22;31183;47.404;8.500;2023-07-08T05:36:41;20.80;98.60
45435;DHT22;31183;47.404;8.500;2023-07-08T05:39:07;20.80;99.30
45435;DHT22;31183;47.404;8.500;2023-07-08T05:41:34;20.70;99.40
45435;DHT22;31183;47.404;8.500;2023-07-08T05:44:01;20.50;99.90
45435;DHT22;31183;47.404;8.500;2023-07-08T05:46:28;20.40;99.90
45435;DHT22;31183;47.404;8.500;2023-07-08T05:48:54;20.40;99.90
45435;DHT22;31183;47.404;8.500;2023-07-08T05:51:22;20.40;99.90
45435;DHT22;31183;47.404;8.500;2023-07-08T05:53:49;20.40;99.90
45435;DHT22;31183;47.404;8.500;2023-07-08T05:56:15;20.40;99.90
45435;DHT22;31183;47.404;8.500;2023-07-08T05:58:42;20.50;99.90
45435;DHT22;31183;47.404;8.500;2023-07-08T06:01:09;20.70;99.90
45435;DHT22;31183;47.404;8.500;2023-07-08T06:03:37;20.70;99.90
45435;DHT22;31183;47.404;8.500;2023-07-08T06:06:03;20.70;99.90
45435;DHT22;31183;47.404;8.500;2023-07-08T06:08:34;20.90;99.90
45435;DHT22;31183;47.404;8.500;2023-07-08T06:11:01;20.80;99.90
45435;DHT22;31183;47.404;8.500;2023-07-08T06:13:28;20.70;99.90
45435;DHT22;31183;47.404;8.500;2023-07-08T06:15:54;20.60;99.90
45435;DHT22;31183;47.404;8.500;2023-07-08T06:18:22;20.60;99.90
45435;DHT22;31183;47.404;8.500;2023-07-08T06:20:53;20.70;99.90
45435;DHT22;31183;47.404;8.500;2023-07-08T06:23:20;20.70;99.90
45435;DHT22;31183;47.404;8.500;2023-07-08T06:25:46;20.70;99.90
45435;DHT22;31183;47.404;8.500;2023-07-08T06:28:13;20.70;99.90
45435;DHT22;31183;47.404;8.500;2023-07-08T06:30:40;20.60;99.90
45435;DHT22;31183;47.404;8.500;2023-07-08T06:33:06;20.60;99.90
45435;DHT22;31183;47.404;8.500;2023-07-08T06:35:33;20.60;99.90
45435;DHT22;31183;47.404;8.500;2023-07-08T06:38:00;20.50;99.90
45435;DHT22;31183;47.404;8.500;2023-07-08T06:40:26;20.80;99.90
45435;DHT22;31183;47.404;8.500;2023-07-08T06:42:53;20.90;99.90
45435;DHT22;31183;47.404;8.500;2023-07-08T06:45:20;20.80;99.90
45435;DHT22;31183;47.404;8.500;2023-07-08T06:47:46;20.90;99.90
45435;DHT22;31183;47.404;8.500;2023-07-08T06:50:13;20.90;99.90
45435;DHT22;31183;47.404;8.500;2023-07-08T06:52:40;20.90;99.90
45435;DHT22;31183;47.404;8.500;2023-07-08T06:55:09;20.80;99.90
45435;DHT22;31183;47.404;8.500;2023-07-08T06:57:36;20.80;99.90
45435;DHT22;31183;47.404;8.500;2023-07-08T07:00:08;20.80;99.90
45435;DHT22;31183;47.404;8.500;2023-07-08T07:02:36;20.80;99.90
45435;DHT22;31183;47.404;8.500;2023-07-08T07:05:03;20.70;99.90
45435;DHT22;31183;47.404;8.500;2023-07-08T07:07:30;20.70;99.90
45435;DHT22;31183;47.404;8.500;2023-07-08T07:09:57;20.70;99.90
45435;DHT22;31183;47.404;8.500;2023-07-08T07:12:24;20.70;99.90
45435;DHT22;31183;47.404;8.500;2023-07-08T07:14:51;20.70;99.90
45435;DHT22;31183;47.404;8.500;2023-07-08T07:17:21;20.70;99.90
45435;DHT22;31183;47.404;8.500;2023-07-08T07:19:48;20.60;99.90
45435;DHT22;31183;47.404;8.500;2023-07-08T07:22:15;20.60;99.90
45435;DHT22;31183;47.404;8.500;2023-07-08T07:24:42;20.60;99.90
45435;DHT22;31183;47.404;8.500;2023-07-08T07:27:09;20.50;99.90
45435;DHT22;31183;47.404;8.500;2023-07-08T07:29:42;20.40;99.90
45435;DHT22;31183;47.404;8.500;2023-07-08T07:32:10;20.50;99.90
45435;DHT22;31183;47.404;8.500;2023-07-08T07:34:38;20.50;99.90
45435;DHT22;31183;47.404;8.500;2023-07-08T07:37:15;20.50;99.90
45435;DHT22;31183;47.404;8.500;2023-07-08T07:39:42;20.50;99.90
45435;DHT22;31183;47.404;8.500;2023-07-08T07:42:10;20.50;99.90
45435;DHT22;31183;47.404;8.500;2023-07-08T07:44:37;20.50;99.90
45435;DHT22;31183;47.404;8.500;2023-07-08T07:47:07;20.50;99.90
45435;DHT22;31183;47.404;8.500;2023-07-08T07:49:34;20.60;99.90
45435;DHT22;31183;47.404;8.500;2023-07-08T07:52:00;20.60;99.90
45435;DHT22;31183;47.404;8.500;2023-07-08T07:54:27;20.70;99.90
45435;DHT22;31183;47.404;8.500;2023-07-08T07:56:54;20.80;99.70
45435;DHT22;31183;47.404;8.500;2023-07-08T07:59:21;20.80;99.70
45435;DHT22;31183;47.404;8.500;2023-07-08T08:01:48;20.80;99.70
45435;DHT22;31183;47.404;8.500;2023-07-08T08:04:15;20.80;99.90
45435;DHT22;31183;47.404;8.500;2023-07-08T08:06:42;20.90;99.90
45435;DHT22;31183;47.404;8.500;2023-07-08T08:09:08;20.90;99.90
45435;DHT22;31183;47.404;8.500;2023-07-08T08:11:35;21.00;99.80
45435;DHT22;31183;47.404;8.500;2023-07-08T08:14:01;21.00;99.20
45435;DHT22;31183;47.404;8.500;2023-07-08T08:16:36;21.00;99.10
45435;DHT22;31183;47.404;8.500;2023-07-08T08:19:03;21.00;99.30
45435;DHT22;31183;47.404;8.500;2023-07-08T08:21:33;21.10;99.10
45435;DHT22;31183;47.404;8.500;2023-07-08T08:24:00;21.20;98.90
45435;DHT22;31183;47.404;8.500;2023-07-08T08:26:27;21.30;98.70
45435;DHT22;31183;47.404;8.500;2023-07-08T08:28:53;21.40;99.00
45435;DHT22;31183;47.404;8.500;2023-07-08T08:31:20;21.50;98.70
45435;DHT22;31183;47.404;8.500;2023-07-08T08:33:47;21.60;98.20
45435;DHT22;31183;47.404;8.500;2023-07-08T08:36:14;21.70;97.30
45435;DHT22;31183;47.404;8.500;2023-07-08T08:38:40;21.80;96.30
45435;DHT22;31183;47.404;8.500;2023-07-08T08:41:13;21.90;96.20
45435;DHT22;31183;47.404;8.500;2023-07-08T08:43:41;22.10;95.30
45435;DHT22;31183;47.404;8.500;2023-07-08T08:49:37;22.20;94.90
45435;DHT22;31183;47.404;8.500;2023-07-08T08:52:06;22.30;94.20
45435;DHT22;31183;47.404;8.500;2023-07-08T08:54:33;22.30;94.50
45435;DHT22;31183;47.404;8.500;2023-07-08T08:57:10;22.30;94.50
45435;DHT22;31183;47.404;8.500;2023-07-08T08:59:53;22.40;94.70
45435;DHT22;31183;47.404;8.500;2023-07-08T09:05:10;22.40;94.50
45435;DHT22;31183;47.404;8.500;2023-07-08T09:08:05;22.40;94.30
45435;DHT22;31183;47.404;8.500;2023-07-08T09:10:44;22.50;94.20
45435;DHT22;31183;47.404;8.500;2023-07-08T09:13:25;22.50;94.30
45435;DHT22;31183;47.404;8.500;2023-07-08T09:16:04;22.60;94.00
45435;DHT22;31183;47.404;8.500;2023-07-08T09:18:36;22.60;94.20
45435;DHT22;31183;47.404;8.500;2023-07-08T09:21:15;22.70;94.10
45435;DHT22;31183;47.404;8.500;2023-07-08T09:23:45;22.70;94.10
45435;DHT22;31183;47.404;8.500;2023-07-08T09:26:19;22.80;94.50
45435;DHT22;31183;47.404;8.500;2023-07-08T09:28:47;22.90;94.50
45435;DHT22;31183;47.404;8.500;2023-07-08T09:31:26;22.90;93.70
45435;DHT22;31183;47.404;8.500;2023-07-08T09:34:05;23.00;94.30
45435;DHT22;31183;47.404;8.500;2023-07-08T09:36:32;23.10;93.70
45435;DHT22;31183;47.404;8.500;2023-07-08T09:39:00;23.00;92.70
45435;DHT22;31183;47.404;8.500;2023-07-08T09:41:34;23.10;92.60
45435;DHT22;31183;47.404;8.500;2023-07-08T09:46:37;23.30;92.30
45435;DHT22;31183;47.404;8.500;2023-07-08T09:49:18;23.40;91.80
45435;DHT22;31183;47.404;8.500;2023-07-08T09:51:46;23.40;91.00
45435;DHT22;31183;47.404;8.500;2023-07-08T09:54:12;23.50;91.10
45435;DHT22;31183;47.404;8.500;2023-07-08T09:56:42;23.50;90.60
45435;DHT22;31183;47.404;8.500;2023-07-08T09:59:14;23.50;89.40
45435;DHT22;31183;47.404;8.500;2023-07-08T10:01:42;23.50;88.80
45435;DHT22;31183;47.404;8.500;2023-07-08T10:04:09;23.50;88.70
45435;DHT22;31183;47.404;8.500;2023-07-08T10:06:36;23.50;88.60
45435;DHT22;31183;47.404;8.500;2023-07-08T10:09:11;23.70;88.00
45435;DHT22;31183;47.404;8.500;2023-07-08T10:11:48;23.80;87.30
45435;DHT22;31183;47.404;8.500;2023-07-08T10:14:42;23.90;85.20
45435;DHT22;31183;47.404;8.500;2023-07-08T10:17:15;24.00;87.20
45435;DHT22;31183;47.404;8.500;2023-07-08T10:19:42;24.00;86.70
45435;DHT22;31183;47.404;8.500;2023-07-08T10:22:32;24.00;87.60
45435;DHT22;31183;47.404;8.500;2023-07-08T10:25:46;23.90;88.10
45435;DHT22;31183;47.404;8.500;2023-07-08T10:30:25;23.80;86.60
45435;DHT22;31183;47.404;8.500;2023-07-08T10:33:00;23.80;86.30
45435;DHT22;31183;47.404;8.500;2023-07-08T10:35:39;23.70;85.90
45435;DHT22;31183;47.404;8.500;2023-07-08T10:38:28;23.70;87.50
45435;DHT22;31183;47.404;8.500;2023-07-08T10:52:22;23.50;86.00
45435;DHT22;31183;47.404;8.500;2023-07-08T10:58:13;23.50;90.60
45435;DHT22;31183;47.404;8.500;2023-07-08T11:01:17;23.50;90.60
45435;DHT22;31183;47.404;8.500;2023-07-08T11:06:33;23.50;91.90
45435;DHT22;31183;47.404;8.500;2023-07-08T11:09:04;23.60;93.30
45435;DHT22;31183;47.404;8.500;2023-07-08T11:11:45;23.70;93.70
45435;DHT22;31183;47.404;8.500;2023-07-08T11:14:27;23.70;94.50
45435;DHT22;31183;47.404;8.500;2023-07-08T11:19:59;23.90;95.40
45435;DHT22;31183;47.404;8.500;2023-07-08T11:22:29;23.90;94.80
45435;DHT22;31183;47.404;8.500;2023-07-08T11:24:59;24.00;95.50
45435;DHT22;31183;47.404;8.500;2023-07-08T11:27:37;24.00;95.70
45435;DHT22;31183;47.404;8.500;2023-07-08T11:32:39;24.00;96.50
45435;DHT22;31183;47.404;8.500;2023-07-08T11:35:25;24.00;96.50
45435;DHT22;31183;47.404;8.500;2023-07-08T11:37:54;24.10;96.70
45435;DHT22;31183;47.404;8.500;2023-07-08T11:40:23;24.10;96.70
45435;DHT22;31183;47.404;8.500;2023-07-08T11:43:03;24.00;96.80
45435;DHT22;31183;47.404;8.500;2023-07-08T11:45:37;24.00;97.10
45435;DHT22;31183;47.404;8.500;2023-07-08T11:48:16;24.00;97.00
45435;DHT22;31183;47.404;8.500;2023-07-08T11:50:45;24.10;97.20
45435;DHT22;31183;47.404;8.500;2023-07-08T11:55:58;24.20;97.60
45435;DHT22;31183;47.404;8.500;2023-07-08T11:58:29;24.20;97.60
45435;DHT22;31183;47.404;8.500;2023-07-08T12:01:26;24.30;96.80
45435;DHT22;31183;47.404;8.500;2023-07-08T12:04:17;24.30;96.20
45435;DHT22;31183;47.404;8.500;2023-07-08T12:06:47;24.30;96.80
45435;DHT22;31183;47.404;8.500;2023-07-08T12:09:26;24.30;96.20
45435;DHT22;31183;47.404;8.500;2023-07-08T12:11:58;24.30;96.30
45435;DHT22;31183;47.404;8.500;2023-07-08T12:14:27;24.30;96.20
45435;DHT22;31183;47.404;8.500;2023-07-08T12:16:54;24.30;96.30
45435;DHT22;31183;47.404;8.500;2023-07-08T12:19:24;24.30;96.50
45435;DHT22;31183;47.404;8.500;2023-07-08T12:21:55;24.30;96.70
45435;DHT22;31183;47.404;8.500;2023-07-08T12:24:22;24.40;95.90
45435;DHT22;31183;47.404;8.500;2023-07-08T12:26:53;24.40;96.10
45435;DHT22;31183;47.404;8.500;2023-07-08T12:29:19;24.40;96.60
45435;DHT22;31183;47.404;8.500;2023-07-08T12:31:46;24.40;96.10
45435;DHT22;31183;47.404;8.500;2023-07-08T12:34:14;24.40;96.10
45435;DHT22;31183;47.404;8.500;2023-07-08T12:36:44;24.40;96.00
45435;DHT22;31183;47.404;8.500;2023-07-08T12:39:14;24.40;96.20
45435;DHT22;31183;47.404;8.500;2023-07-08T12:41:42;24.40;96.50
45435;DHT22;31183;47.404;8.500;2023-07-08T12:44:27;24.40;96.30
45435;DHT22;31183;47.404;8.500;2023-07-08T12:46:54;24.40;96.70
45435;DHT22;31183;47.404;8.500;2023-07-08T12:49:21;24.30;96.90
45435;DHT22;31183;47.404;8.500;2023-07-08T12:51:53;24.30;97.00
45435;DHT22;31183;47.404;8.500;2023-07-08T12:54:19;24.30;97.20
45435;DHT22;31183;47.404;8.500;2023-07-08T12:56:47;24.30;96.40
45435;DHT22;31183;47.404;8.500;2023-07-08T12:59:19;24.40;96.20
45435;DHT22;31183;47.404;8.500;2023-07-08T13:01:48;24.40;96.60
45435;DHT22;31183;47.404;8.500;2023-07-08T13:04:16;24.40;96.60
45435;DHT22;31183;47.404;8.500;2023-07-08T13:06:44;24.40;96.40
45435;DHT22;31183;47.404;8.500;2023-07-08T13:09:23;24.40;96.20
45435;DHT22;31183;47.404;8.500;2023-07-08T13:11:51;24.40;96.10
45435;DHT22;31183;47.404;8.500;2023-07-08T13:14:20;24.40;95.90
45435;DHT22;31183;47.404;8.500;2023-07-08T13:16:47;24.40;95.40
45435;DHT22;31183;47.404;8.500;2023-07-08T13:19:16;24.40;95.20
45435;DHT22;31183;47.404;8.500;2023-07-08T13:21:44;24.40;96.20
45435;DHT22;31183;47.404;8.500;2023-07-08T13:24:12;24.40;96.80
45435;DHT22;31183;47.404;8.500;2023-07-08T13:26:39;24.40;96.50
45435;DHT22;31183;47.404;8.500;2023-07-08T13:29:13;24.40;96.00
45435;DHT22;31183;47.404;8.500;2023-07-08T13:31:48;24.40;95.80
45435;DHT22;31183;47.404;8.500;2023-07-08T13:34:20;24.40;95.50
45435;DHT22;31183;47.404;8.500;2023-07-08T13:36:51;24.50;94.50
45435;DHT22;31183;47.404;8.500;2023-07-08T13:39:29;24.50;94.30
45435;DHT22;31183;47.404;8.500;2023-07-08T13:41:57;24.60;94.30
45435;DHT22;31183;47.404;8.500;2023-07-08T13:44:25;24.60;94.20
45435;DHT22;31183;47.404;8.500;2023-07-08T13:46:59;24.60;94.00
45435;DHT22;31183;47.404;8.500;2023-07-08T13:49:39;24.60;94.20
45435;DHT22;31183;47.404;8.500;2023-07-08T13:52:08;24.50;94.30
45435;DHT22;31183;47.404;8.500;2023-07-08T13:54:47;24.50;94.20
45435;DHT22;31183;47.404;8.500;2023-07-08T13:57:19;24.60;93.20
45435;DHT22;31183;47.404;8.500;2023-07-08T13:59:46;24.60;94.50
45435;DHT22;31183;47.404;8.500;2023-07-08T14:02:19;24.70;93.50
45435;DHT22;31183;47.404;8.500;2023-07-08T14:04:48;24.70;94.30
45435;DHT22;31183;47.404;8.500;2023-07-08T14:07:20;24.60;93.70
45435;DHT22;31183;47.404;8.500;2023-07-08T14:09:47;24.60;95.50
45435;DHT22;31183;47.404;8.500;2023-07-08T14:12:14;24.60;94.30
45435;DHT22;31183;47.404;8.500;2023-07-08T14:14:41;24.60;94.70
45435;DHT22;31183;47.404;8.500;2023-07-08T14:17:11;24.50;93.10
45435;DHT22;31183;47.404;8.500;2023-07-08T14:19:38;24.50;93.60
45435;DHT22;31183;47.404;8.500;2023-07-08T14:24:41;24.40;94.90
45435;DHT22;31183;47.404;8.500;2023-07-08T14:27:09;24.40;94.70
45435;DHT22;31183;47.404;8.500;2023-07-08T14:29:39;24.40;94.70
45435;DHT22;31183;47.404;8.500;2023-07-08T14:32:13;24.40;93.20
45435;DHT22;31183;47.404;8.500;2023-07-08T14:34:41;24.40;92.40
45435;DHT22;31183;47.404;8.500;2023-07-08T14:37:14;24.40;93.20
45435;DHT22;31183;47.404;8.500;2023-07-08T14:39:40;24.40;94.00
45435;DHT22;31183;47.404;8.500;2023-07-08T14:42:11;24.40;94.00
45435;DHT22;31183;47.404;8.500;2023-07-08T14:44:40;24.40;94.20
45435;DHT22;31183;47.404;8.500;2023-07-08T14:47:12;24.30;93.10
45435;DHT22;31183;47.404;8.500;2023-07-08T14:49:39;24.40;87.80
45435;DHT22;31183;47.404;8.500;2023-07-08T14:52:06;24.50;89.90
45435;DHT22;31183;47.404;8.500;2023-07-08T14:54:33;24.50;90.50
45435;DHT22;31183;47.404;8.500;2023-07-08T14:57:01;24.50;87.80
45435;DHT22;31183;47.404;8.500;2023-07-08T14:59:30;24.60;84.90
45435;DHT22;31183;47.404;8.500;2023-07-08T15:01:58;24.60;85.10
45435;DHT22;31183;47.404;8.500;2023-07-08T15:04:26;24.70;83.40
45435;DHT22;31183;47.404;8.500;2023-07-08T15:06:54;24.80;87.00
45435;DHT22;31183;47.404;8.500;2023-07-08T15:09:23;24.70;86.60
45435;DHT22;31183;47.404;8.500;2023-07-08T15:11:50;24.70;85.10
45435;DHT22;31183;47.404;8.500;2023-07-08T15:14:20;24.90;83.60
45435;DHT22;31183;47.404;8.500;2023-07-08T15:16:48;24.80;84.90
45435;DHT22;31183;47.404;8.500;2023-07-08T15:19:15;24.70;86.50
45435;DHT22;31183;47.404;8.500;2023-07-08T15:21:41;24.70;87.30
45435;DHT22;31183;47.404;8.500;2023-07-08T15:24:10;24.60;87.00
45435;DHT22;31183;47.404;8.500;2023-07-08T15:26:39;24.60;87.20
45435;DHT22;31183;47.404;8.500;2023-07-08T15:29:14;24.60;87.90
45435;DHT22;31183;47.404;8.500;2023-07-08T15:31:41;24.60;86.80
45435;DHT22;31183;47.404;8.500;2023-07-08T15:34:16;24.70;86.30
45435;DHT22;31183;47.404;8.500;2023-07-08T15:36:42;24.80;85.50
45435;DHT22;31183;47.404;8.500;2023-07-08T15:39:09;24.70;85.80
45435;DHT22;31183;47.404;8.500;2023-07-08T15:41:36;24.80;85.80
45435;DHT22;31183;47.404;8.500;2023-07-08T15:44:11;24.70;86.00
45435;DHT22;31183;47.404;8.500;2023-07-08T15:46:43;24.60;86.80
45435;DHT22;31183;47.404;8.500;2023-07-08T15:49:20;24.60;86.90
45435;DHT22;31183;47.404;8.500;2023-07-08T15:51:49;24.60;86.20
45435;DHT22;31183;47.404;8.500;2023-07-08T15:54:18;24.60;83.80
45435;DHT22;31183;47.404;8.500;2023-07-08T15:56:50;24.70;82.60
45435;DHT22;31183;47.404;8.500;2023-07-08T15:59:21;24.70;84.10
45435;DHT22;31183;47.404;8.500;2023-07-08T16:01:49;24.70;84.80
45435;DHT22;31183;47.404;8.500;2023-07-08T16:04:33;24.60;85.70
45435;DHT22;31183;47.404;8.500;2023-07-08T16:07:01;24.60;86.00
45435;DHT22;31183;47.404;8.500;2023-07-08T16:09:28;24.60;84.90
45435;DHT22;31183;47.404;8.500;2023-07-08T16:11:54;24.50;85.40
45435;DHT22;31183;47.404;8.500;2023-07-08T16:14:21;24.50;85.30
45435;DHT22;31183;47.404;8.500;2023-07-08T16:16:52;24.50;85.70
45435;DHT22;31183;47.404;8.500;2023-07-08T16:19:19;24.50;85.70
45435;DHT22;31183;47.404;8.500;2023-07-08T16:21:45;24.50;84.20
45435;DHT22;31183;47.404;8.500;2023-07-08T16:24:13;24.60;84.50
45435;DHT22;31183;47.404;8.500;2023-07-08T16:26:40;24.50;84.50
45435;DHT22;31183;47.404;8.500;2023-07-08T16:29:13;24.60;79.50
45435;DHT22;31183;47.404;8.500;2023-07-08T16:31:41;24.70;80.60